• Join FlightAware (Why Join?)
  • Login
  • US Flag 
08:06AM EST


 

Airport Tracker/Info


-or-


 

Live Flight TrackerFlight Track Log ✈ TAM3518 ✈ 13-Jun-2013 ✈ SBVT / VIX - SBBR / BSB

Flight Track Log - Related Links

Times and Time Zones

All times are in EDT time to prevent confusion due to time zone crossing. See the TAM3518 flight status page for this flight to view local times or setup timezone preferences in your user account.

Time Position Orientation Groundspeed Altitude Reporting Facility
EDT Latitude Longitude Course Direction KTS MPH feet Rate Location/Type
07:42AM -18.6516 -43.1804 300° West  Level Estimated
07:43AM -18.6076 -43.2578 301° West  Level Estimated
07:44AM -18.5635 -43.3352 301° West  Level Estimated
07:45AM -18.5194 -43.4126 301° West  Level Estimated
07:46AM -18.4753 -43.4899 301° West  Level Estimated
07:47AM -18.4311 -43.5672 301° West  Level Estimated
07:48AM -18.3869 -43.6444 301° West  Level Estimated
07:49AM -18.3427 -43.7216 301° West  Level Estimated
07:50AM -18.2984 -43.7987 301° West  Level Estimated
07:51AM -18.2541 -43.8758 301° West  Level Estimated
07:52AM -18.2098 -43.9529 301° West  Level Estimated
07:53AM -18.1654 -44.0299 301° West  Level Estimated
07:54AM -18.1211 -44.1069 301° West  Level Estimated
07:55AM -18.0767 -44.1839 301° West  Level Estimated
07:56AM -18.0322 -44.2608 301° West  Level Estimated
07:57AM -17.9877 -44.3377 301° West  Level Estimated
07:58AM -17.9432 -44.4145 301° West  Level Estimated
07:59AM -17.8987 -44.4913 301° West  Level Estimated
08:00AM -17.8541 -44.5681 301° West  Level Estimated
08:01AM -17.8095 -44.6448 301° West  Level Estimated
08:02AM -17.7649 -44.7215 301° West  Level Estimated
08:03AM -17.7202 -44.7982 301° West  Level Estimated
08:04AM -17.6755 -44.8748 301° West  Level Estimated
08:05AM -17.6308 -44.9514 301° West  Level Estimated
08:06AM -17.5861 -45.0279 302° West  Level Estimated
08:07AM -17.5413 -45.1044 302° West  Level Estimated
08:08AM -17.4965 -45.1808 302° West  Level Estimated
08:09AM -17.4517 -45.2573 302° West  Level Estimated
08:10AM -17.4068 -45.3336 302° West  Level Estimated
08:11AM -17.3619 -45.4100 302° West  Level Estimated
08:12AM -17.3170 -45.4863 302° West  Level Estimated
08:13AM -17.2720 -45.5626 302° West  Level Estimated
08:14AM -17.2271 -45.6388 302° West  Level Estimated
08:15AM -17.1821 -45.7150 302° West  Level Estimated
08:16AM -17.1370 -45.7912 302° West  Level Estimated
08:17AM -17.0920 -45.8673 302° West  Level Estimated
08:18AM -17.0469 -45.9434 302° West  Level Estimated
08:19AM -17.0018 -46.0194 302° West  Level Estimated
08:20AM -16.9566 -46.0954 302° West  Level Estimated
08:21AM -16.9114 -46.1714 302° West  Level Estimated
08:22AM -16.8662 -46.2473 302° West  Level Estimated
08:23AM -16.8210 -46.3232 302° West  Level Estimated
08:24AM -16.7757 -46.3991 302° West  Level Estimated
08:25AM -16.7304 -46.4749 302° West  Level Estimated
08:26AM -16.6851 -46.5507 302° West  Level Estimated
08:27AM -16.6398 -46.6265 302° West  Level Estimated
08:28AM -16.5944 -46.7022 302° West  Level Estimated
08:29AM -16.5490 -46.7779 302° West  Level Estimated
08:30AM -16.5036 -46.8536 302° West  Level Estimated
08:31AM -16.4581 -46.9292 302° West  Level Estimated
08:32AM -16.4126 -47.0048 302° West  Level Estimated
08:33AM -16.3671 -47.0803 302° West  Level Estimated
08:34AM -16.3216 -47.1558 302° West  Level Estimated
08:35AM -16.2761 -47.2313 302° West  Level Estimated
08:36AM -16.2305 -47.3067 302° West  Level Estimated
08:37AM -16.1849 -47.3821 302° West  Level Estimated
08:38AM -16.1392 -47.4575 302° West  Level Estimated
08:39AM -16.0935 -47.5328 302° West  Level Estimated
08:40AM -16.0478 -47.6082 302° West  Level Estimated
08:41AM -16.0021 -47.6834 302° West  Level Estimated
08:42AM -15.9564 -47.7587 302° West  Level Estimated
08:43AM -15.9106 -47.8339 302° West  Level Estimated
08:44AM -15.8648 -47.9090 302° West  Level Estimated
08:45AM -15.8626 -47.9127 302° West  Level Estimated
08:46AM -15.8626 -47.9127 128° Southeast  Level Estimated
08:47AM -15.8626 -47.9127 128° Southeast  Level Estimated
08:48AM -15.8626 -47.9127 128° Southeast  Level Estimated
08:49AM -15.8626 -47.9127 128° Southeast  Level Estimated
08:50AM -15.8626 -47.9127 128° Southeast  Level Estimated
08:51AM -15.8626 -47.9127 128° Southeast  Level Estimated
08:52AM -15.8626 -47.9127 128° Southeast  Level Estimated
08:53AM -15.8626 -47.9127 128° Southeast  Level Estimated
08:54AM -15.8626 -47.9127 128° Southeast  Level Estimated
08:55AM -15.8626 -47.9127 128° Southeast  Level Estimated
08:56AM -15.8626 -47.9127 128° Southeast  Level Estimated
08:57AM -15.8626 -47.9127 128° Southeast  Level Estimated
08:58AM -15.8626 -47.9127 128° Southeast  Level Estimated
08:59AM -15.8626 -47.9127 128° Southeast  Level Estimated
09:00AM -15.8626 -47.9127 128° Southeast  Level Estimated